sensor_id;sensor_type;location;lat;lon;timestamp;temperature;humidity
16271;DHT22;8243;49.048;8.396;2023-08-30T00:00:38;14.90;99.90
16271;DHT22;8243;49.048;8.396;2023-08-30T00:03:04;14.90;99.90
16271;DHT22;8243;49.048;8.396;2023-08-30T00:05:31;14.90;99.90
16271;DHT22;8243;49.048;8.396;2023-08-30T00:07:57;14.80;99.90
16271;DHT22;8243;49.048;8.396;2023-08-30T00:10:22;14.80;99.90
16271;DHT22;8243;49.048;8.396;2023-08-30T00:12:48;14.80;99.90
16271;DHT22;8243;49.048;8.396;2023-08-30T00:15:15;14.80;99.90
16271;DHT22;8243;49.048;8.396;2023-08-30T00:17:40;14.80;99.90
16271;DHT22;8243;49.048;8.396;2023-08-30T00:20:07;14.80;99.90
16271;DHT22;8243;49.048;8.396;2023-08-30T00:22:34;14.80;99.90
16271;DHT22;8243;49.048;8.396;2023-08-30T00:25:00;14.70;99.90
16271;DHT22;8243;49.048;8.396;2023-08-30T00:27:25;14.70;99.90
16271;DHT22;8243;49.048;8.396;2023-08-30T00:29:51;14.70;99.90
16271;DHT22;8243;49.048;8.396;2023-08-30T00:32:17;14.70;99.90
16271;DHT22;8243;49.048;8.396;2023-08-30T00:34:42;14.70;99.90
16271;DHT22;8243;49.048;8.396;2023-08-30T00:37:08;14.70;99.90
16271;DHT22;8243;49.048;8.396;2023-08-30T00:39:37;14.70;99.90
16271;DHT22;8243;49.048;8.396;2023-08-30T00:42:03;14.70;99.90
16271;DHT22;8243;49.048;8.396;2023-08-30T00:44:31;14.70;99.90
16271;DHT22;8243;49.048;8.396;2023-08-30T00:46:57;14.70;99.90
16271;DHT22;8243;49.048;8.396;2023-08-30T00:49:23;14.60;99.90
16271;DHT22;8243;49.048;8.396;2023-08-30T00:51:49;14.60;99.90
16271;DHT22;8243;49.048;8.396;2023-08-30T00:54:15;14.60;99.90
16271;DHT22;8243;49.048;8.396;2023-08-30T00:56:41;14.60;99.90
16271;DHT22;8243;49.048;8.396;2023-08-30T00:59:07;14.60;99.90
16271;DHT22;8243;49.048;8.396;2023-08-30T01:01:32;14.60;99.90
16271;DHT22;8243;49.048;8.396;2023-08-30T01:03:58;14.60;99.90
16271;DHT22;8243;49.048;8.396;2023-08-30T01:06:24;14.60;99.90
16271;DHT22;8243;49.048;8.396;2023-08-30T01:08:49;14.60;99.90
16271;DHT22;8243;49.048;8.396;2023-08-30T01:11:32;14.60;99.90
16271;DHT22;8243;49.048;8.396;2023-08-30T01:14:07;14.70;99.90
16271;DHT22;8243;49.048;8.396;2023-08-30T01:16:35;14.70;99.90
16271;DHT22;8243;49.048;8.396;2023-08-30T01:19:10;14.70;99.90
16271;DHT22;8243;49.048;8.396;2023-08-30T01:21:50;14.80;99.90
16271;DHT22;8243;49.048;8.396;2023-08-30T01:24:35;14.80;99.90
16271;DHT22;8243;49.048;8.396;2023-08-30T01:27:10;14.80;99.90
16271;DHT22;8243;49.048;8.396;2023-08-30T01:29:37;14.80;99.90
16271;DHT22;8243;49.048;8.396;2023-08-30T01:32:07;14.80;99.90
16271;DHT22;8243;49.048;8.396;2023-08-30T01:34:33;14.90;99.90
16271;DHT22;8243;49.048;8.396;2023-08-30T01:37:00;14.80;99.90
16271;DHT22;8243;49.048;8.396;2023-08-30T01:39:26;14.80;99.90
16271;DHT22;8243;49.048;8.396;2023-08-30T01:41:52;14.80;99.90
16271;DHT22;8243;49.048;8.396;2023-08-30T01:44:26;14.90;99.90
16271;DHT22;8243;49.048;8.396;2023-08-30T01:46:52;14.90;99.90
16271;DHT22;8243;49.048;8.396;2023-08-30T01:49:19;14.90;99.90
16271;DHT22;8243;49.048;8.396;2023-08-30T01:51:45;14.90;99.90
16271;DHT22;8243;49.048;8.396;2023-08-30T01:54:16;14.90;99.90
16271;DHT22;8243;49.048;8.396;2023-08-30T01:56:43;14.90;99.90
16271;DHT22;8243;49.048;8.396;2023-08-30T01:59:08;14.90;99.90
16271;DHT22;8243;49.048;8.396;2023-08-30T02:01:34;14.80;99.90
16271;DHT22;8243;49.048;8.396;2023-08-30T02:04:00;14.90;99.90
16271;DHT22;8243;49.048;8.396;2023-08-30T02:06:50;14.80;99.90
16271;DHT22;8243;49.048;8.396;2023-08-30T02:09:42;14.80;99.90
16271;DHT22;8243;49.048;8.396;2023-08-30T02:12:14;14.80;99.90
16271;DHT22;8243;49.048;8.396;2023-08-30T02:14:45;14.80;99.90
16271;DHT22;8243;49.048;8.396;2023-08-30T02:17:14;14.80;99.90
16271;DHT22;8243;49.048;8.396;2023-08-30T02:19:40;14.90;99.90
16271;DHT22;8243;49.048;8.396;2023-08-30T02:22:07;14.90;99.90
16271;DHT22;8243;49.048;8.396;2023-08-30T02:24:32;14.90;99.90
16271;DHT22;8243;49.048;8.396;2023-08-30T02:26:58;14.90;99.90
16271;DHT22;8243;49.048;8.396;2023-08-30T02:29:24;14.90;99.90
16271;DHT22;8243;49.048;8.396;2023-08-30T02:31:49;14.90;99.90
16271;DHT22;8243;49.048;8.396;2023-08-30T02:34:16;14.90;99.90
16271;DHT22;8243;49.048;8.396;2023-08-30T02:36:42;14.90;99.90
16271;DHT22;8243;49.048;8.396;2023-08-30T02:39:07;14.90;99.90
16271;DHT22;8243;49.048;8.396;2023-08-30T02:41:33;14.90;99.90
16271;DHT22;8243;49.048;8.396;2023-08-30T02:44:00;14.90;99.90
16271;DHT22;8243;49.048;8.396;2023-08-30T02:46:25;14.90;99.90
16271;DHT22;8243;49.048;8.396;2023-08-30T02:48:51;14.90;99.90
16271;DHT22;8243;49.048;8.396;2023-08-30T02:51:16;14.90;99.90
16271;DHT22;8243;49.048;8.396;2023-08-30T02:53:42;14.90;99.90
16271;DHT22;8243;49.048;8.396;2023-08-30T02:56:08;14.90;99.90
16271;DHT22;8243;49.048;8.396;2023-08-30T02:58:34;14.90;99.90
16271;DHT22;8243;49.048;8.396;2023-08-30T03:01:01;14.90;99.90
16271;DHT22;8243;49.048;8.396;2023-08-30T03:03:27;14.90;99.90
16271;DHT22;8243;49.048;8.396;2023-08-30T03:05:53;14.90;99.90
16271;DHT22;8243;49.048;8.396;2023-08-30T03:08:19;14.90;99.90
16271;DHT22;8243;49.048;8.396;2023-08-30T03:10:45;14.90;99.90
16271;DHT22;8243;49.048;8.396;2023-08-30T03:13:11;14.90;99.90
16271;DHT22;8243;49.048;8.396;2023-08-30T03:15:36;14.80;99.90
16271;DHT22;8243;49.048;8.396;2023-08-30T03:18:02;14.80;99.90
16271;DHT22;8243;49.048;8.396;2023-08-30T03:20:27;14.80;99.90
16271;DHT22;8243;49.048;8.396;2023-08-30T03:22:56;14.80;99.90
16271;DHT22;8243;49.048;8.396;2023-08-30T03:25:23;14.80;99.90
16271;DHT22;8243;49.048;8.396;2023-08-30T03:27:49;14.80;99.90
16271;DHT22;8243;49.048;8.396;2023-08-30T03:30:14;14.70;99.90
16271;DHT22;8243;49.048;8.396;2023-08-30T03:32:40;14.80;99.90
16271;DHT22;8243;49.048;8.396;2023-08-30T03:35:06;14.80;99.90
16271;DHT22;8243;49.048;8.396;2023-08-30T03:37:32;14.70;99.90
16271;DHT22;8243;49.048;8.396;2023-08-30T03:39:57;14.80;99.90
16271;DHT22;8243;49.048;8.396;2023-08-30T03:42:23;14.80;99.90
16271;DHT22;8243;49.048;8.396;2023-08-30T03:44:49;14.70;99.90
16271;DHT22;8243;49.048;8.396;2023-08-30T03:47:14;14.70;99.90
16271;DHT22;8243;49.048;8.396;2023-08-30T03:49:40;14.80;99.90
16271;DHT22;8243;49.048;8.396;2023-08-30T03:52:05;14.70;99.90
16271;DHT22;8243;49.048;8.396;2023-08-30T03:54:31;14.70;99.90
16271;DHT22;8243;49.048;8.396;2023-08-30T03:56:58;14.70;99.90
16271;DHT22;8243;49.048;8.396;2023-08-30T03:59:24;14.70;99.90
16271;DHT22;8243;49.048;8.396;2023-08-30T04:01:52;14.70;99.90
16271;DHT22;8243;49.048;8.396;2023-08-30T04:04:18;14.60;99.90
16271;DHT22;8243;49.048;8.396;2023-08-30T04:06:44;14.70;99.90
16271;DHT22;8243;49.048;8.396;2023-08-30T04:09:10;14.70;99.90
16271;DHT22;8243;49.048;8.396;2023-08-30T04:11:35;14.60;99.90
16271;DHT22;8243;49.048;8.396;2023-08-30T04:14:01;14.70;99.90
16271;DHT22;8243;49.048;8.396;2023-08-30T04:16:27;14.70;99.90
16271;DHT22;8243;49.048;8.396;2023-08-30T04:18:54;14.70;99.90
16271;DHT22;8243;49.048;8.396;2023-08-30T04:21:19;14.70;99.90
16271;DHT22;8243;49.048;8.396;2023-08-30T04:23:45;14.70;99.90
16271;DHT22;8243;49.048;8.396;2023-08-30T04:26:12;14.70;99.90
16271;DHT22;8243;49.048;8.396;2023-08-30T04:28:38;14.70;99.90
16271;DHT22;8243;49.048;8.396;2023-08-30T04:31:04;14.70;99.90
16271;DHT22;8243;49.048;8.396;2023-08-30T04:33:29;14.60;99.90
16271;DHT22;8243;49.048;8.396;2023-08-30T04:35:55;14.60;99.90
16271;DHT22;8243;49.048;8.396;2023-08-30T04:38:21;14.60;99.90
16271;DHT22;8243;49.048;8.396;2023-08-30T04:40:48;14.60;99.90
16271;DHT22;8243;49.048;8.396;2023-08-30T04:43:14;14.60;99.90
16271;DHT22;8243;49.048;8.396;2023-08-30T04:45:40;14.60;99.90
16271;DHT22;8243;49.048;8.396;2023-08-30T04:48:06;14.60;99.90
16271;DHT22;8243;49.048;8.396;2023-08-30T04:50:32;14.60;99.90
16271;DHT22;8243;49.048;8.396;2023-08-30T04:52:58;14.60;99.90
16271;DHT22;8243;49.048;8.396;2023-08-30T04:55:24;14.70;99.90
16271;DHT22;8243;49.048;8.396;2023-08-30T04:57:50;14.70;99.90
16271;DHT22;8243;49.048;8.396;2023-08-30T05:00:17;14.80;99.90
16271;DHT22;8243;49.048;8.396;2023-08-30T05:02:43;14.80;99.90
16271;DHT22;8243;49.048;8.396;2023-08-30T05:05:12;14.80;99.90
16271;DHT22;8243;49.048;8.396;2023-08-30T05:07:37;14.90;99.90
16271;DHT22;8243;49.048;8.396;2023-08-30T05:10:03;14.90;99.90
16271;DHT22;8243;49.048;8.396;2023-08-30T05:12:29;15.00;99.90
16271;DHT22;8243;49.048;8.396;2023-08-30T05:14:55;15.00;99.90
16271;DHT22;8243;49.048;8.396;2023-08-30T05:17:21;15.10;99.90
16271;DHT22;8243;49.048;8.396;2023-08-30T05:19:46;15.10;99.90
16271;DHT22;8243;49.048;8.396;2023-08-30T05:22:12;15.20;99.90
16271;DHT22;8243;49.048;8.396;2023-08-30T05:24:37;15.20;99.90
16271;DHT22;8243;49.048;8.396;2023-08-30T05:27:03;15.20;99.90
16271;DHT22;8243;49.048;8.396;2023-08-30T05:29:29;15.20;99.90
16271;DHT22;8243;49.048;8.396;2023-08-30T05:31:55;15.30;99.90
16271;DHT22;8243;49.048;8.396;2023-08-30T05:34:21;15.30;99.90
16271;DHT22;8243;49.048;8.396;2023-08-30T05:36:46;15.30;99.90
16271;DHT22;8243;49.048;8.396;2023-08-30T05:39:12;15.40;99.90
16271;DHT22;8243;49.048;8.396;2023-08-30T05:41:38;15.40;99.90
16271;DHT22;8243;49.048;8.396;2023-08-30T05:44:07;15.50;99.90
16271;DHT22;8243;49.048;8.396;2023-08-30T05:46:54;15.50;99.90
16271;DHT22;8243;49.048;8.396;2023-08-30T05:49:20;15.50;99.90
16271;DHT22;8243;49.048;8.396;2023-08-30T05:51:46;15.60;99.90
16271;DHT22;8243;49.048;8.396;2023-08-30T05:54:13;15.60;99.90
16271;DHT22;8243;49.048;8.396;2023-08-30T05:56:38;15.70;99.90
16271;DHT22;8243;49.048;8.396;2023-08-30T05:59:04;15.70;99.90
16271;DHT22;8243;49.048;8.396;2023-08-30T06:01:29;15.80;99.90
16271;DHT22;8243;49.048;8.396;2023-08-30T06:03:56;15.90;99.90
16271;DHT22;8243;49.048;8.396;2023-08-30T06:06:22;16.00;99.90
16271;DHT22;8243;49.048;8.396;2023-08-30T06:08:48;16.10;99.90
16271;DHT22;8243;49.048;8.396;2023-08-30T06:11:13;16.20;99.90
16271;DHT22;8243;49.048;8.396;2023-08-30T06:13:40;16.40;99.90
16271;DHT22;8243;49.048;8.396;2023-08-30T06:16:06;16.60;99.90
16271;DHT22;8243;49.048;8.396;2023-08-30T06:18:31;16.60;99.90
16271;DHT22;8243;49.048;8.396;2023-08-30T06:20:58;16.90;99.90
16271;DHT22;8243;49.048;8.396;2023-08-30T06:23:24;17.20;99.90
16271;DHT22;8243;49.048;8.396;2023-08-30T06:25:56;17.60;99.90
16271;DHT22;8243;49.048;8.396;2023-08-30T06:28:23;17.90;99.90
16271;DHT22;8243;49.048;8.396;2023-08-30T06:31:10;18.10;99.90
16271;DHT22;8243;49.048;8.396;2023-08-30T06:33:36;18.30;99.90
16271;DHT22;8243;49.048;8.396;2023-08-30T06:36:02;18.70;99.90
16271;DHT22;8243;49.048;8.396;2023-08-30T06:38:28;19.00;99.90
16271;DHT22;8243;49.048;8.396;2023-08-30T06:40:57;19.20;99.90
16271;DHT22;8243;49.048;8.396;2023-08-30T06:43:23;19.30;97.90
16271;DHT22;8243;49.048;8.396;2023-08-30T06:45:49;19.70;94.90
16271;DHT22;8243;49.048;8.396;2023-08-30T06:48:15;19.80;91.40
16271;DHT22;8243;49.048;8.396;2023-08-30T06:50:42;19.60;89.40
16271;DHT22;8243;49.048;8.396;2023-08-30T06:53:09;19.90;89.10
16271;DHT22;8243;49.048;8.396;2023-08-30T06:55:35;20.00;85.00
16271;DHT22;8243;49.048;8.396;2023-08-30T06:58:02;20.10;81.50
16271;DHT22;8243;49.048;8.396;2023-08-30T07:00:28;20.30;77.50
16271;DHT22;8243;49.048;8.396;2023-08-30T07:02:54;20.20;75.70
16271;DHT22;8243;49.048;8.396;2023-08-30T07:05:21;20.30;71.40
16271;DHT22;8243;49.048;8.396;2023-08-30T07:07:47;20.60;69.80
16271;DHT22;8243;49.048;8.396;2023-08-30T07:10:12;20.90;66.00
16271;DHT22;8243;49.048;8.396;2023-08-30T07:12:38;21.10;60.30
16271;DHT22;8243;49.048;8.396;2023-08-30T07:15:04;21.10;58.90
16271;DHT22;8243;49.048;8.396;2023-08-30T07:17:30;20.80;59.00
16271;DHT22;8243;49.048;8.396;2023-08-30T07:19:56;20.90;58.20
16271;DHT22;8243;49.048;8.396;2023-08-30T07:22:22;21.00;56.10
16271;DHT22;8243;49.048;8.396;2023-08-30T07:24:47;21.30;53.60
16271;DHT22;8243;49.048;8.396;2023-08-30T07:27:13;21.20;51.90
16271;DHT22;8243;49.048;8.396;2023-08-30T07:29:39;21.30;50.40
16271;DHT22;8243;49.048;8.396;2023-08-30T07:32:09;21.20;50.80
16271;DHT22;8243;49.048;8.396;2023-08-30T07:34:35;21.20;49.70
16271;DHT22;8243;49.048;8.396;2023-08-30T07:37:01;21.20;49.10
16271;DHT22;8243;49.048;8.396;2023-08-30T07:39:27;21.20;47.60
16271;DHT22;8243;49.048;8.396;2023-08-30T07:41:53;21.40;46.60
16271;DHT22;8243;49.048;8.396;2023-08-30T07:44:18;21.60;45.90
16271;DHT22;8243;49.048;8.396;2023-08-30T07:46:46;21.70;43.60
16271;DHT22;8243;49.048;8.396;2023-08-30T07:49:11;22.10;41.80
16271;DHT22;8243;49.048;8.396;2023-08-30T07:51:37;22.40;38.30
16271;DHT22;8243;49.048;8.396;2023-08-30T07:54:03;22.50;37.70
16271;DHT22;8243;49.048;8.396;2023-08-30T07:56:29;22.70;35.50
16271;DHT22;8243;49.048;8.396;2023-08-30T07:58:55;22.80;35.30
16271;DHT22;8243;49.048;8.396;2023-08-30T08:01:20;22.60;35.10
16271;DHT22;8243;49.048;8.396;2023-08-30T08:03:46;23.10;33.40
16271;DHT22;8243;49.048;8.396;2023-08-30T08:06:12;23.50;32.50
16271;DHT22;8243;49.048;8.396;2023-08-30T08:08:38;23.30;30.30
16271;DHT22;8243;49.048;8.396;2023-08-30T08:11:04;23.40;30.50
16271;DHT22;8243;49.048;8.396;2023-08-30T08:13:30;23.60;28.80
16271;DHT22;8243;49.048;8.396;2023-08-30T08:15:57;23.60;28.50
16271;DHT22;8243;49.048;8.396;2023-08-30T08:18:24;24.00;28.00
16271;DHT22;8243;49.048;8.396;2023-08-30T08:20:50;24.00;26.80
16271;DHT22;8243;49.048;8.396;2023-08-30T08:23:15;23.80;26.60
16271;DHT22;8243;49.048;8.396;2023-08-30T08:25:41;23.90;25.30
16271;DHT22;8243;49.048;8.396;2023-08-30T08:28:07;24.10;25.30
16271;DHT22;8243;49.048;8.396;2023-08-30T08:30:32;24.10;24.80
16271;DHT22;8243;49.048;8.396;2023-08-30T08:32:58;24.40;23.60
16271;DHT22;8243;49.048;8.396;2023-08-30T08:35:25;24.20;24.90
16271;DHT22;8243;49.048;8.396;2023-08-30T08:37:51;24.00;24.50
16271;DHT22;8243;49.048;8.396;2023-08-30T08:40:18;24.10;23.90
16271;DHT22;8243;49.048;8.396;2023-08-30T08:42:44;24.60;23.30
16271;DHT22;8243;49.048;8.396;2023-08-30T08:45:11;24.00;22.10
16271;DHT22;8243;49.048;8.396;2023-08-30T08:47:38;23.40;22.90
16271;DHT22;8243;49.048;8.396;2023-08-30T08:50:05;22.60;26.00
16271;DHT22;8243;49.048;8.396;2023-08-30T08:52:31;22.00;26.50
16271;DHT22;8243;49.048;8.396;2023-08-30T08:54:57;21.90;27.70
16271;DHT22;8243;49.048;8.396;2023-08-30T08:57:25;21.90;29.00
16271;DHT22;8243;49.048;8.396;2023-08-30T08:59:51;21.70;29.60
16271;DHT22;8243;49.048;8.396;2023-08-30T09:02:17;21.90;29.80
16271;DHT22;8243;49.048;8.396;2023-08-30T09:04:43;22.20;29.00
16271;DHT22;8243;49.048;8.396;2023-08-30T09:07:09;22.70;28.50
16271;DHT22;8243;49.048;8.396;2023-08-30T09:09:36;22.80;27.80
16271;DHT22;8243;49.048;8.396;2023-08-30T09:12:02;22.60;29.60
16271;DHT22;8243;49.048;8.396;2023-08-30T09:14:28;22.60;28.90
16271;DHT22;8243;49.048;8.396;2023-08-30T09:16:58;22.40;28.80
16271;DHT22;8243;49.048;8.396;2023-08-30T09:19:26;22.30;29.70
16271;DHT22;8243;49.048;8.396;2023-08-30T09:21:59;22.30;29.60
16271;DHT22;8243;49.048;8.396;2023-08-30T09:24:25;22.30;29.20
16271;DHT22;8243;49.048;8.396;2023-08-30T09:26:53;22.20;28.90
16271;DHT22;8243;49.048;8.396;2023-08-30T09:29:20;22.10;30.10
16271;DHT22;8243;49.048;8.396;2023-08-30T09:31:51;22.10;29.60
16271;DHT22;8243;49.048;8.396;2023-08-30T09:34:21;22.30;29.80
16271;DHT22;8243;49.048;8.396;2023-08-30T09:36:47;22.20;30.00
16271;DHT22;8243;49.048;8.396;2023-08-30T09:39:14;22.10;30.00
16271;DHT22;8243;49.048;8.396;2023-08-30T09:41:45;22.30;30.00
16271;DHT22;8243;49.048;8.396;2023-08-30T09:44:19;22.70;30.20
16271;DHT22;8243;49.048;8.396;2023-08-30T09:46:54;23.00;27.90
16271;DHT22;8243;49.048;8.396;2023-08-30T09:49:24;22.90;27.80
16271;DHT22;8243;49.048;8.396;2023-08-30T09:51:52;22.80;27.80
16271;DHT22;8243;49.048;8.396;2023-08-30T09:54:22;22.70;29.00
16271;DHT22;8243;49.048;8.396;2023-08-30T09:56:49;22.60;28.90
16271;DHT22;8243;49.048;8.396;2023-08-30T09:59:18;22.50;28.90
16271;DHT22;8243;49.048;8.396;2023-08-30T10:01:46;22.60;28.70
16271;DHT22;8243;49.048;8.396;2023-08-30T10:04:13;22.60;28.00
16271;DHT22;8243;49.048;8.396;2023-08-30T10:06:40;22.50;28.10
16271;DHT22;8243;49.048;8.396;2023-08-30T10:09:07;22.40;28.00
16271;DHT22;8243;49.048;8.396;2023-08-30T10:11:37;22.40;29.00
16271;DHT22;8243;49.048;8.396;2023-08-30T10:14:04;22.30;28.80
16271;DHT22;8243;49.048;8.396;2023-08-30T10:16:36;22.30;29.10
16271;DHT22;8243;49.048;8.396;2023-08-30T10:19:08;22.20;29.70
16271;DHT22;8243;49.048;8.396;2023-08-30T10:21:36;22.40;29.60
16271;DHT22;8243;49.048;8.396;2023-08-30T10:24:05;22.50;29.30
16271;DHT22;8243;49.048;8.396;2023-08-30T10:26:33;22.70;29.00
16271;DHT22;8243;49.048;8.396;2023-08-30T10:28:59;22.80;29.10
16271;DHT22;8243;49.048;8.396;2023-08-30T10:31:27;22.90;29.10
16271;DHT22;8243;49.048;8.396;2023-08-30T10:33:54;23.20;28.70
16271;DHT22;8243;49.048;8.396;2023-08-30T10:36:26;23.60;28.10
16271;DHT22;8243;49.048;8.396;2023-08-30T10:38:53;23.80;26.40
16271;DHT22;8243;49.048;8.396;2023-08-30T10:41:21;23.90;25.30
16271;DHT22;8243;49.048;8.396;2023-08-30T10:43:52;23.90;24.40
16271;DHT22;8243;49.048;8.396;2023-08-30T10:46:31;24.00;25.50
16271;DHT22;8243;49.048;8.396;2023-08-30T10:49:08;23.90;24.40
16271;DHT22;8243;49.048;8.396;2023-08-30T10:51:37;24.00;24.50
16271;DHT22;8243;49.048;8.396;2023-08-30T10:54:14;23.70;24.50
16271;DHT22;8243;49.048;8.396;2023-08-30T10:59:18;23.60;24.40
16271;DHT22;8243;49.048;8.396;2023-08-30T11:01:47;23.80;23.80
16271;DHT22;8243;49.048;8.396;2023-08-30T11:04:20;23.80;24.40
16271;DHT22;8243;49.048;8.396;2023-08-30T11:06:48;23.90;24.50
16271;DHT22;8243;49.048;8.396;2023-08-30T11:09:17;24.00;24.30
16271;DHT22;8243;49.048;8.396;2023-08-30T11:11:44;24.00;22.60
16271;DHT22;8243;49.048;8.396;2023-08-30T11:14:11;23.90;23.20
16271;DHT22;8243;49.048;8.396;2023-08-30T11:16:38;24.20;22.80
16271;DHT22;8243;49.048;8.396;2023-08-30T11:19:05;24.20;21.60
16271;DHT22;8243;49.048;8.396;2023-08-30T11:21:53;24.10;21.80
16271;DHT22;8243;49.048;8.396;2023-08-30T11:24:19;24.20;22.20
16271;DHT22;8243;49.048;8.396;2023-08-30T11:26:44;24.10;21.90
16271;DHT22;8243;49.048;8.396;2023-08-30T11:29:10;24.20;21.80
16271;DHT22;8243;49.048;8.396;2023-08-30T11:31:36;24.00;21.00
16271;DHT22;8243;49.048;8.396;2023-08-30T11:34:02;23.60;21.80
16271;DHT22;8243;49.048;8.396;2023-08-30T11:36:29;23.70;21.80
16271;DHT22;8243;49.048;8.396;2023-08-30T11:38:57;24.10;21.90
16271;DHT22;8243;49.048;8.396;2023-08-30T11:41:26;24.20;19.40
16271;DHT22;8243;49.048;8.396;2023-08-30T11:43:52;24.00;18.90
16271;DHT22;8243;49.048;8.396;2023-08-30T11:46:19;23.70;19.70
16271;DHT22;8243;49.048;8.396;2023-08-30T11:48:45;24.00;19.80
16271;DHT22;8243;49.048;8.396;2023-08-30T11:51:12;24.30;19.10
16271;DHT22;8243;49.048;8.396;2023-08-30T11:53:39;24.20;19.00
16271;DHT22;8243;49.048;8.396;2023-08-30T11:56:07;24.30;19.40
16271;DHT22;8243;49.048;8.396;2023-08-30T11:58:34;24.30;19.10
16271;DHT22;8243;49.048;8.396;2023-08-30T12:01:01;24.40;19.20
16271;DHT22;8243;49.048;8.396;2023-08-30T12:03:27;24.40;17.70
16271;DHT22;8243;49.048;8.396;2023-08-30T12:05:54;24.30;17.70
16271;DHT22;8243;49.048;8.396;2023-08-30T12:08:27;24.50;17.50
16271;DHT22;8243;49.048;8.396;2023-08-30T12:10:55;24.40;17.40
16271;DHT22;8243;49.048;8.396;2023-08-30T12:13:29;24.40;17.00
16271;DHT22;8243;49.048;8.396;2023-08-30T12:15:57;24.20;17.50
16271;DHT22;8243;49.048;8.396;2023-08-30T12:18:26;24.20;17.20
16271;DHT22;8243;49.048;8.396;2023-08-30T12:21:13;24.30;17.80
16271;DHT22;8243;49.048;8.396;2023-08-30T12:23:40;24.40;17.10
16271;DHT22;8243;49.048;8.396;2023-08-30T12:26:08;24.40;16.70
16271;DHT22;8243;49.048;8.396;2023-08-30T12:28:39;24.20;17.20
16271;DHT22;8243;49.048;8.396;2023-08-30T12:31:05;24.30;17.10
16271;DHT22;8243;49.048;8.396;2023-08-30T12:33:35;24.40;17.40
16271;DHT22;8243;49.048;8.396;2023-08-30T12:36:01;24.60;16.60
16271;DHT22;8243;49.048;8.396;2023-08-30T12:38:27;24.40;15.80
16271;DHT22;8243;49.048;8.396;2023-08-30T12:40:56;24.70;15.50
16271;DHT22;8243;49.048;8.396;2023-08-30T12:43:22;24.70;15.80
16271;DHT22;8243;49.048;8.396;2023-08-30T12:45:49;24.60;15.70
16271;DHT22;8243;49.048;8.396;2023-08-30T12:48:16;24.60;16.40
16271;DHT22;8243;49.048;8.396;2023-08-30T12:50:45;24.80;15.30
16271;DHT22;8243;49.048;8.396;2023-08-30T12:53:11;24.80;14.70
16271;DHT22;8243;49.048;8.396;2023-08-30T12:55:37;24.90;14.70
16271;DHT22;8243;49.048;8.396;2023-08-30T12:58:06;25.20;15.50
16271;DHT22;8243;49.048;8.396;2023-08-30T13:00:32;25.10;13.90
16271;DHT22;8243;49.048;8.396;2023-08-30T13:03:02;24.80;13.70
16271;DHT22;8243;49.048;8.396;2023-08-30T13:05:30;24.70;14.30
16271;DHT22;8243;49.048;8.396;2023-08-30T13:08:00;24.60;15.20
16271;DHT22;8243;49.048;8.396;2023-08-30T13:10:26;24.80;14.90
16271;DHT22;8243;49.048;8.396;2023-08-30T13:12:51;24.80;14.20
16271;DHT22;8243;49.048;8.396;2023-08-30T13:15:18;24.90;13.80
16271;DHT22;8243;49.048;8.396;2023-08-30T13:17:44;25.10;13.20
16271;DHT22;8243;49.048;8.396;2023-08-30T13:20:10;25.00;12.70
16271;DHT22;8243;49.048;8.396;2023-08-30T13:22:36;25.00;12.90
16271;DHT22;8243;49.048;8.396;2023-08-30T13:25:02;25.10;12.30
16271;DHT22;8243;49.048;8.396;2023-08-30T13:27:31;25.20;12.00
16271;DHT22;8243;49.048;8.396;2023-08-30T13:29:57;25.00;12.30
16271;DHT22;8243;49.048;8.396;2023-08-30T13:32:22;24.70;12.30
16271;DHT22;8243;49.048;8.396;2023-08-30T13:34:50;24.70;12.30
16271;DHT22;8243;49.048;8.396;2023-08-30T13:37:16;24.60;13.60
16271;DHT22;8243;49.048;8.396;2023-08-30T13:39:41;24.60;13.60
16271;DHT22;8243;49.048;8.396;2023-08-30T13:42:08;24.80;13.70
16271;DHT22;8243;49.048;8.396;2023-08-30T13:44:34;24.50;13.50
16271;DHT22;8243;49.048;8.396;2023-08-30T13:47:06;24.30;14.20
16271;DHT22;8243;49.048;8.396;2023-08-30T13:49:31;24.20;14.10
16271;DHT22;8243;49.048;8.396;2023-08-30T13:51:57;24.40;14.00
16271;DHT22;8243;49.048;8.396;2023-08-30T13:54:23;24.30;14.00
16271;DHT22;8243;49.048;8.396;2023-08-30T13:56:50;24.30;15.20
16271;DHT22;8243;49.048;8.396;2023-08-30T13:59:16;23.90;14.20
16271;DHT22;8243;49.048;8.396;2023-08-30T14:01:42;23.40;15.00
16271;DHT22;8243;49.048;8.396;2023-08-30T14:04:08;23.40;15.40
16271;DHT22;8243;49.048;8.396;2023-08-30T14:06:34;23.30;15.90
16271;DHT22;8243;49.048;8.396;2023-08-30T14:09:00;23.50;16.20
16271;DHT22;8243;49.048;8.396;2023-08-30T14:11:26;23.50;15.90
16271;DHT22;8243;49.048;8.396;2023-08-30T14:13:51;23.50;16.40
16271;DHT22;8243;49.048;8.396;2023-08-30T14:16:17;23.60;15.80
16271;DHT22;8243;49.048;8.396;2023-08-30T14:18:43;23.70;14.80
16271;DHT22;8243;49.048;8.396;2023-08-30T14:21:09;23.70;15.00
16271;DHT22;8243;49.048;8.396;2023-08-30T14:23:35;23.90;15.10
16271;DHT22;8243;49.048;8.396;2023-08-30T14:26:06;23.90;15.60
16271;DHT22;8243;49.048;8.396;2023-08-30T14:28:36;24.10;14.50
16271;DHT22;8243;49.048;8.396;2023-08-30T14:31:02;24.20;14.10
16271;DHT22;8243;49.048;8.396;2023-08-30T14:33:29;24.50;13.50
16271;DHT22;8243;49.048;8.396;2023-08-30T14:35:55;24.30;13.40
16271;DHT22;8243;49.048;8.396;2023-08-30T14:38:22;24.30;13.40
16271;DHT22;8243;49.048;8.396;2023-08-30T14:41:01;24.30;13.40
16271;DHT22;8243;49.048;8.396;2023-08-30T14:43:27;24.20;13.50
16271;DHT22;8243;49.048;8.396;2023-08-30T14:46:00;24.10;13.60
16271;DHT22;8243;49.048;8.396;2023-08-30T14:48:26;24.20;13.70
16271;DHT22;8243;49.048;8.396;2023-08-30T14:50:53;24.20;13.80
16271;DHT22;8243;49.048;8.396;2023-08-30T14:53:18;24.30;14.00
16271;DHT22;8243;49.048;8.396;2023-08-30T14:55:45;24.50;13.50
16271;DHT22;8243;49.048;8.396;2023-08-30T14:58:12;24.50;13.70
16271;DHT22;8243;49.048;8.396;2023-08-30T15:00:37;24.60;13.90
16271;DHT22;8243;49.048;8.396;2023-08-30T15:03:03;24.40;13.80
16271;DHT22;8243;49.048;8.396;2023-08-30T15:05:29;24.40;14.00
16271;DHT22;8243;49.048;8.396;2023-08-30T15:07:54;24.40;14.30
16271;DHT22;8243;49.048;8.396;2023-08-30T15:10:20;24.20;14.00
16271;DHT22;8243;49.048;8.396;2023-08-30T15:12:46;24.20;14.50
16271;DHT22;8243;49.048;8.396;2023-08-30T15:15:14;24.00;13.30
16271;DHT22;8243;49.048;8.396;2023-08-30T15:17:40;24.00;13.90
16271;DHT22;8243;49.048;8.396;2023-08-30T15:20:07;24.20;13.70
16271;DHT22;8243;49.048;8.396;2023-08-30T15:22:34;24.00;13.50
16271;DHT22;8243;49.048;8.396;2023-08-30T15:25:00;23.80;14.20
16271;DHT22;8243;49.048;8.396;2023-08-30T15:27:28;23.70;13.90
16271;DHT22;8243;49.048;8.396;2023-08-30T15:29:55;23.80;14.10
16271;DHT22;8243;49.048;8.396;2023-08-30T15:32:21;23.60;14.50
16271;DHT22;8243;49.048;8.396;2023-08-30T15:34:48;23.60;14.70
16271;DHT22;8243;49.048;8.396;2023-08-30T15:37:15;23.60;14.60
16271;DHT22;8243;49.048;8.396;2023-08-30T15:39:41;23.60;14.70
16271;DHT22;8243;49.048;8.396;2023-08-30T15:42:06;23.60;15.10
16271;DHT22;8243;49.048;8.396;2023-08-30T15:44:32;23.50;15.20
16271;DHT22;8243;49.048;8.396;2023-08-30T15:46:57;23.50;15.30